LGKV

Alexander the Great International Airport

Kavala, Greece
TAF LGKV 181400Z 1815/1824 18010KT 9999 FEW025 BECMG 1816/1818 07010KT
Issued Valid From Valid To
Sep-18 @ 14:00 UTC
(4 hours ago)
Sep-18 @ 15:00 UTC
(3 hours ago)
Sep-19 @ 00:00 UTC
(in 6 hours)
Expired Click to View Sep-18 @ 15:00 to Sep-18 @ 16:00
TAF LGKV 181400Z 1815/1824 18010KT 9999 FEW025
Wind Visibility Clouds
180° at 10 knots 10,000+ meters
  • Few at 2,500' AGL
Becoming Sep-18 @ 16:00 to Sep-19 @ 00:00
BECMG 1816/1818 07010KT
Wind Visibility Clouds
70° at 10 knots 10,000+ meters
  • Few at 2,500' AGL
TAF LGKV 181400Z 1815/1824 18010KT 9999 FEW025 BECMG 1816/1818 07010KT
Issued Sep-18 @ 14:00 UTC
(4 hours ago)
Valid From Sep-18 @ 15:00 UTC
(3 hours ago)
Valid To Sep-19 @ 00:00 UTC
(in 6 hours)
Sep-18 @ 15:00 - Sep-18 @ 16:00
Wind Visibility
180° at 10 knots 10,000+ meters
Clouds
  • Few at 2,500' AGL
Becoming Sep-18 @ 16:00 - Sep-19 @ 00:00
Wind Visibility
70° at 10 knots 10,000+ meters
Clouds
  • Few at 2,500' AGL